createdAt,value
2022-10-19T05:01:04.305Z,0.373
2022-10-19T05:05:19.364Z,1.494
2022-10-19T05:10:40.524Z,4.108
2022-10-19T05:15:45.821Z,11.205
2022-10-19T05:21:36.127Z,36.976
2022-10-19T05:26:36.174Z,66.856
2022-10-19T05:31:36.334Z,137.448
2022-10-19T05:36:36.431Z,207.666
2022-10-19T05:41:36.613Z,243.522
2022-10-19T05:46:36.661Z,463.14
2022-10-19T05:51:36.761Z,741.024
2022-10-19T05:56:36.869Z,944.208
2022-10-19T06:01:36.993Z,1189.224
2022-10-19T06:06:37.061Z,1398.384
2022-10-19T06:11:37.199Z,1577.664
2022-10-19T06:16:37.240Z,1948.176
2022-10-19T06:21:39.504Z,2211.12
2022-10-19T06:24:25.761Z,2892.384
2022-10-19T06:29:55.976Z,3274.848
2022-10-19T06:32:29.115Z,3968.064
2022-10-19T06:35:58.236Z,3991.968
2022-10-19T06:39:27.417Z,4422.24
2022-10-19T06:42:10.692Z,4183.2
2022-10-19T06:47:10.670Z,4804.704
2022-10-19T06:52:10.749Z,5091.552
2022-10-19T06:56:25.877Z,4995.936
2022-10-19T07:01:46.101Z,5330.592
2022-10-19T07:05:30.579Z,5976
2022-10-19T07:09:40.513Z,6788.736
2022-10-19T07:12:18.648Z,6645.312
2022-10-19T07:16:33.256Z,7697.088
2022-10-19T07:19:44.535Z,8175.168
2022-10-19T07:23:09.609Z,10517.76
2022-10-19T07:25:44.717Z,9083.52
2022-10-19T07:28:48.803Z,11139.264
2022-10-19T07:31:38.615Z,8987.904
2022-10-19T07:34:32.113Z,9179.136
2022-10-19T07:38:01.878Z,12716.928
2022-10-19T07:40:59.056Z,10852.416
2022-10-19T07:45:02.662Z,14820.48
2022-10-19T07:48:08.431Z,9465.984
2022-10-19T07:50:59.071Z,18262.656
2022-10-19T07:54:54.744Z,23043.456
2022-10-19T07:57:47.722Z,16445.952
2022-10-19T08:00:21.049Z,14724.864
2022-10-19T08:05:00.091Z,15394.176
2022-10-19T08:07:08.225Z,15107.328
2022-10-19T08:10:37.595Z,19505.664
2022-10-19T08:13:44.212Z,21704.832
2022-10-19T08:17:35.837Z,15776.64
2022-10-19T08:20:26.353Z,15011.712
2022-10-19T08:26:17.365Z,16828.416
2022-10-19T08:28:47.557Z,28493.568
2022-10-19T08:31:23.543Z,16063.488
2022-10-19T08:36:23.074Z,14820.48
2022-10-19T08:39:06.195Z,16063.488
2022-10-19T08:42:03.648Z,14055.552
2022-10-19T08:44:46.935Z,14533.632
2022-10-19T08:47:35.394Z,13768.704
2022-10-19T08:50:13.447Z,14342.4
2022-10-19T08:53:42.606Z,17306.496
2022-10-19T08:56:22.239Z,19792.512
2022-10-19T09:01:25.252Z,21226.752
2022-10-19T09:05:04.709Z,15776.64
2022-10-19T09:07:38.038Z,11665.152
2022-10-19T09:11:02.158Z,12047.616
2022-10-19T09:14:41.925Z,15967.872
2022-10-19T09:18:05.964Z,17593.344
2022-10-19T09:20:41.609Z,19888.128
2022-10-19T09:23:20.938Z,23139.072
2022-10-19T09:26:09.886Z,17402.112
2022-10-19T09:28:48.084Z,16924.032
2022-10-19T09:31:21.129Z,15967.872
2022-10-19T09:33:58.286Z,13673.088
2022-10-19T09:36:54.451Z,16828.416
2022-10-19T09:41:28.783Z,19218.816
2022-10-19T09:44:01.595Z,15298.56
2022-10-19T09:46:33.688Z,13003.776
2022-10-19T09:49:32.290Z,11999.808
2022-10-19T09:52:15.523Z,11282.688
2022-10-19T09:54:53.729Z,12191.04
2022-10-19T09:58:02.506Z,15394.176
2022-10-19T10:01:15.762Z,15107.328
2022-10-19T10:04:07.194Z,10613.376
2022-10-19T10:06:55.510Z,8079.552
2022-10-19T10:11:30.945Z,6549.696
2022-10-19T10:18:22.662Z,6693.12
2022-10-19T10:22:09.812Z,8796.672
2022-10-19T10:26:40.247Z,9944.064
2022-10-19T10:30:55.323Z,10278.72
2022-10-19T10:34:58.508Z,7505.856
2022-10-19T10:39:12.565Z,8462.016
2022-10-19T10:41:43.665Z,9944.064
2022-10-19T10:46:54.890Z,11473.92
2022-10-19T10:52:37.011Z,14916.096
2022-10-19T10:56:10.889Z,15967.872
2022-10-19T10:58:49.067Z,16828.416
2022-10-19T11:03:34.717Z,16924.032
2022-10-19T11:09:01.252Z,17688.96
2022-10-19T11:12:25.268Z,18167.04
2022-10-19T11:15:49.337Z,18262.656
2022-10-19T11:21:15.810Z,18549.504
2022-10-19T11:24:50.124Z,19888.128
2022-10-19T11:27:28.279Z,20366.208
2022-10-19T11:30:11.575Z,20748.672
2022-10-19T11:33:10.373Z,19505.664
2022-10-19T11:36:08.710Z,20939.904
2022-10-19T11:38:52.395Z,29067.264
2022-10-19T11:41:47.393Z,23521.536
2022-10-19T11:44:30.755Z,19983.744
2022-10-19T11:47:05.955Z,34230.528
2022-10-19T11:49:41.318Z,20557.44
2022-10-19T11:52:15.557Z,21991.68
2022-10-19T11:55:11.464Z,20461.824
2022-10-19T12:00:42.981Z,17115.264
2022-10-19T12:03:31.347Z,14820.48
2022-10-19T12:07:26.017Z,12716.928
2022-10-19T12:09:59.065Z,11712.96
2022-10-19T12:12:42.270Z,11091.456
2022-10-19T12:15:27.872Z,16541.568
2022-10-19T12:19:20.659Z,47616.768
2022-10-19T12:25:12.619Z,46469.376
2022-10-19T12:28:24.793Z,16924.032
2022-10-19T12:31:28.585Z,11904.192
2022-10-19T12:38:11.609Z,10661.184
2022-10-19T12:40:54.847Z,10852.416
2022-10-19T12:45:14.982Z,10708.992
2022-10-19T12:47:58.249Z,9991.872
2022-10-19T12:50:31.443Z,9991.872
2022-10-19T12:54:05.670Z,10278.72
2022-10-19T12:57:45.007Z,10900.224
2022-10-19T13:02:00.090Z,10326.528
2022-10-19T13:05:34.395Z,10230.912
2022-10-19T13:08:48.283Z,10135.296
2022-10-19T13:11:36.633Z,10422.144
2022-10-19T13:16:57.965Z,10995.84
2022-10-19T13:20:01.668Z,11187.072
2022-10-19T13:23:20.585Z,10708.992
2022-10-19T13:26:03.811Z,9944.064
2022-10-19T13:28:41.982Z,9657.216
2022-10-19T13:32:06.052Z,8844.48
2022-10-19T13:37:06.955Z,7792.704
2022-10-19T13:39:45.079Z,7649.28
2022-10-19T13:42:23.173Z,7123.392
2022-10-19T13:49:36.784Z,7123.392
2022-10-19T13:53:11.019Z,7458.048
2022-10-19T13:58:31.210Z,6693.12
2022-10-19T14:04:23.578Z,4900.32
2022-10-19T14:09:23.678Z,5450.112
2022-10-19T14:15:24.997Z,5593.536
2022-10-19T14:19:45.227Z,5641.344
2022-10-19T14:24:44.741Z,5043.744
2022-10-19T14:29:30.474Z,4685.184
2022-10-19T14:32:18.744Z,5474.016
2022-10-19T14:37:28.274Z,5115.456
2022-10-19T14:47:28.511Z,5163.264
2022-10-19T14:52:58.828Z,4637.376
2022-10-19T14:57:58.946Z,4302.72
2022-10-19T15:01:43.516Z,3633.408
2022-10-19T15:06:48.233Z,3370.464
2022-10-19T15:11:48.378Z,3059.712
2022-10-19T15:18:56.041Z,2581.632
2022-10-19T15:23:55.998Z,2079.648
2022-10-19T15:28:56.140Z,1733.04
2022-10-19T15:35:22.422Z,1254.96
2022-10-19T15:40:22.581Z,1099.584
2022-10-19T15:45:22.704Z,854.568
2022-10-19T15:49:17.369Z,663.336
2022-10-19T15:56:19.908Z,466.128
2022-10-19T15:58:53.067Z,394.416
2022-10-19T16:01:26.219Z,343.62
2022-10-19T16:04:04.233Z,285.354
2022-10-19T16:07:33.608Z,225.594
2022-10-19T16:10:06.492Z,186.003
2022-10-19T16:12:49.829Z,156.123
2022-10-19T16:19:00.348Z,91.507
2022-10-19T16:22:49.971Z,59.386
2022-10-19T16:28:10.117Z,27.265
2022-10-19T16:34:41.392Z,7.096
2022-10-19T16:39:41.536Z,2.614
2022-10-19T16:44:57.838Z,0.747
2022-10-19T16:50:28.069Z,0.373
2022-10-19T16:55:28.186Z,0
